Time;durP1;ratioP1;P1;durP2;ratioP2;P2;SDS_P1;SDS_P2;PMS_P1;PMS_P2;Temp;Humidity;BMP_temperature;BMP_pressure;BME280_temperature;BME280_humidity;BME280_pressure;Samples;Min_cycle;Max_cycle;Signal;HPM_P1;HPM_P2
2023/11/30 00:00:07;;;;;;;15.48;13.43;;;2.00;99.90;;;;;;5053099;28;20313;-59
2023/11/30 00:02:34;;;;;;;19.77;14.32;;;2.00;99.90;;;;;;5053321;28;20637;-58
2023/11/30 00:05:02;;;;;;;15.95;11.88;;;1.90;99.90;;;;;;5053152;28;20230;-59
2023/11/30 00:07:29;;;;;;;18.58;13.68;;;2.00;99.90;;;;;;5052893;28;20596;-58
2023/11/30 00:09:57;;;;;;;15.20;13.38;;;1.90;99.90;;;;;;5052453;28;20230;-58
2023/11/30 00:12:24;;;;;;;21.13;14.80;;;1.90;99.90;;;;;;5053057;28;20904;-59
2023/11/30 00:14:51;;;;;;;16.17;12.75;;;1.90;99.90;;;;;;5052978;28;20316;-59
2023/11/30 00:17:18;;;;;;;17.83;12.82;;;1.90;99.90;;;;;;5052191;28;20209;-58
2023/11/30 00:19:44;;;;;;;17.73;13.80;;;1.90;99.90;;;;;;5052103;28;20233;-58
2023/11/30 00:22:11;;;;;;;17.95;15.13;;;1.90;99.90;;;;;;5052767;28;20212;-58
2023/11/30 00:24:38;;;;;;;19.48;14.05;;;1.90;99.90;;;;;;5051679;28;20212;-59
2023/11/30 00:27:06;;;;;;;17.40;14.40;;;1.90;99.90;;;;;;5050076;28;20251;-59
2023/11/30 00:29:33;;;;;;;16.50;13.18;;;1.90;99.90;;;;;;5051325;28;20265;-59
2023/11/30 00:32:00;;;;;;;16.48;12.38;;;1.90;99.90;;;;;;5052117;28;20217;-59
2023/11/30 00:34:27;;;;;;;15.80;14.18;;;1.90;99.90;;;;;;5052522;28;20211;-57
2023/11/30 00:36:54;;;;;;;16.55;11.57;;;1.90;99.90;;;;;;5052375;28;20209;-58
2023/11/30 00:39:20;;;;;;;16.20;13.15;;;1.90;99.90;;;;;;5052473;28;20227;-59
2023/11/30 00:41:47;;;;;;;17.08;14.20;;;1.90;99.90;;;;;;5052127;28;20751;-58
2023/11/30 00:44:18;;;;;;;16.58;13.25;;;1.80;99.90;;;;;;5052608;28;20202;-58
2023/11/30 00:46:45;;;;;;;15.73;11.05;;;1.90;99.90;;;;;;5051191;28;20261;-60
2023/11/30 00:49:11;;;;;;;15.48;11.30;;;1.80;99.90;;;;;;5052506;28;20773;-59
2023/11/30 00:51:38;;;;;;;14.85;13.35;;;1.80;99.90;;;;;;5052662;28;20772;-60
2023/11/30 00:54:05;;;;;;;15.27;13.02;;;1.80;99.90;;;;;;5052688;28;20299;-57
2023/11/30 00:56:32;;;;;;;16.02;12.65;;;1.80;99.90;;;;;;5052916;28;20607;-60
2023/11/30 00:58:59;;;;;;;13.52;11.48;;;1.80;99.90;;;;;;5051433;28;20222;-60
2023/11/30 01:01:27;;;;;;;17.17;12.65;;;1.80;99.90;;;;;;5052668;28;20293;-58
2023/11/30 01:03:54;;;;;;;13.05;11.48;;;1.80;99.90;;;;;;5051432;28;20202;-59
2023/11/30 01:06:20;;;;;;;16.15;12.15;;;1.80;99.90;;;;;;5052644;28;20233;-59
2023/11/30 01:08:47;;;;;;;15.43;12.50;;;1.80;99.90;;;;;;5052817;28;20668;-58
2023/11/30 01:11:14;;;;;;;16.83;12.95;;;1.80;99.90;;;;;;5052824;28;20206;-59
2023/11/30 01:13:41;;;;;;;18.02;14.30;;;1.80;99.90;;;;;;5052722;28;20210;-58
2023/11/30 01:16:09;;;;;;;18.35;13.52;;;1.80;99.90;;;;;;5052650;28;20198;-58
2023/11/30 01:18:37;;;;;;;17.77;12.35;;;1.80;99.90;;;;;;5051417;28;20313;-57
2023/11/30 01:21:04;;;;;;;18.83;13.38;;;1.80;99.90;;;;;;5052224;28;20702;-58
2023/11/30 01:23:31;;;;;;;19.70;13.02;;;1.80;99.90;;;;;;5051745;28;20206;-59
2023/11/30 01:25:57;;;;;;;13.60;10.40;;;1.80;99.90;;;;;;5051970;28;20233;-59
2023/11/30 01:28:24;;;;;;;22.20;14.63;;;1.90;99.90;;;;;;5051427;28;20222;-58
2023/11/30 01:30:51;;;;;;;16.42;11.57;;;1.90;99.90;;;;;;5052321;28;20206;-59
2023/11/30 01:33:18;;;;;;;19.42;14.48;;;1.90;99.90;;;;;;5032455;28;20213;-56
2023/11/30 01:35:47;;;;;;;23.33;14.27;;;1.90;99.90;;;;;;5044103;28;20205;-59
2023/11/30 01:38:14;;;;;;;20.95;13.60;;;1.90;99.90;;;;;;5052034;28;20222;-59
2023/11/30 01:40:41;;;;;;;24.98;16.10;;;1.90;99.90;;;;;;5052382;28;20594;-59
2023/11/30 01:43:08;;;;;;;19.17;13.27;;;1.90;99.90;;;;;;5052146;28;20217;-60
2023/11/30 01:45:35;;;;;;;14.10;12.38;;;1.90;99.90;;;;;;5051882;28;20772;-56
2023/11/30 01:48:02;;;;;;;19.50;13.02;;;1.90;99.90;;;;;;5051676;28;20215;-59
2023/11/30 01:50:29;;;;;;;17.92;14.07;;;1.90;99.90;;;;;;5052220;28;20206;-57
2023/11/30 01:52:57;;;;;;;16.95;13.50;;;1.90;99.90;;;;;;5051861;28;20213;-60
2023/11/30 01:55:24;;;;;;;16.17;14.13;;;1.90;99.90;;;;;;5051887;28;20241;-59
2023/11/30 01:57:51;;;;;;;16.42;12.77;;;1.90;99.90;;;;;;5051749;28;20290;-58
2023/11/30 02:00:19;;;;;;;16.85;12.45;;;1.90;99.90;;;;;;5051792;28;20321;-59
2023/11/30 02:02:47;;;;;;;20.95;13.40;;;1.90;99.90;;;;;;5052036;28;20209;-60
2023/11/30 02:05:14;;;;;;;19.13;12.80;;;1.90;99.90;;;;;;5051638;28;20764;-58
2023/11/30 02:07:40;;;;;;;21.55;14.00;;;1.90;99.90;;;;;;5050725;28;20269;-58
2023/11/30 02:10:09;;;;;;;16.80;12.35;;;2.00;99.90;;;;;;5051650;28;20236;-60
2023/11/30 02:12:36;;;;;;;22.20;13.43;;;2.00;99.90;;;;;;5051751;28;20293;-59
2023/11/30 02:15:04;;;;;;;19.75;12.85;;;1.90;99.90;;;;;;5051431;28;20206;-59
2023/11/30 02:17:31;;;;;;;20.70;13.45;;;1.90;99.90;;;;;;5050735;28;20721;-60
2023/11/30 02:19:58;;;;;;;19.27;13.88;;;2.00;99.90;;;;;;5050700;28;20230;-59
2023/11/30 02:22:26;;;;;;;18.27;11.82;;;1.90;99.90;;;;;;5050912;28;20584;-59
2023/11/30 02:24:52;;;;;;;23.10;14.73;;;1.90;99.90;;;;;;5050023;28;20217;-60
2023/11/30 02:27:19;;;;;;;17.48;12.63;;;1.90;99.90;;;;;;5049109;28;20249;-60
2023/11/30 02:29:46;;;;;;;19.20;13.93;;;1.90;99.90;;;;;;5050220;28;20226;-58
2023/11/30 02:32:13;;;;;;;19.20;13.63;;;1.90;99.90;;;;;;5050394;28;20825;-60
2023/11/30 02:34:40;;;;;;;19.80;14.88;;;2.00;99.90;;;;;;5050332;28;20206;-59
2023/11/30 02:37:06;;;;;;;24.60;16.33;;;2.00;99.90;;;;;;5049945;28;20206;-60
2023/11/30 02:39:35;;;;;;;20.27;13.93;;;2.00;99.90;;;;;;5049639;28;20638;-60
2023/11/30 02:42:01;;;;;;;17.65;13.30;;;2.00;99.90;;;;;;5050494;28;20206;-59
2023/11/30 02:44:28;;;;;;;20.92;12.68;;;2.00;99.90;;;;;;5051134;28;20212;-59
2023/11/30 02:46:55;;;;;;;18.38;12.30;;;2.00;99.90;;;;;;5050816;28;20226;-59
2023/11/30 02:49:22;;;;;;;17.40;13.95;;;2.00;99.90;;;;;;5050545;28;20720;-59
2023/11/30 02:51:49;;;;;;;17.65;13.40;;;2.00;99.90;;;;;;5050747;28;20206;-60
2023/11/30 02:54:16;;;;;;;20.52;15.15;;;2.00;99.90;;;;;;5051036;28;20332;-60
2023/11/30 02:56:44;;;;;;;19.20;14.98;;;2.00;99.90;;;;;;5050561;28;20203;-57
2023/11/30 02:59:10;;;;;;;19.23;13.32;;;2.00;99.90;;;;;;5050849;28;20233;-60
2023/11/30 03:01:43;;;;;;;23.02;14.00;;;2.00;99.90;;;;;;5051132;28;20210;-60
2023/11/30 03:04:10;;;;;;;17.33;13.20;;;2.00;99.90;;;;;;5050754;28;20217;-58
2023/11/30 03:06:38;;;;;;;19.58;14.30;;;2.00;99.90;;;;;;5050686;28;20317;-60
2023/11/30 03:09:05;;;;;;;20.33;13.90;;;2.00;99.90;;;;;;5050617;28;20232;-59
2023/11/30 03:11:32;;;;;;;16.38;12.98;;;2.00;99.90;;;;;;5050871;28;20690;-60
2023/11/30 03:14:00;;;;;;;16.95;12.90;;;2.00;99.90;;;;;;5050865;28;20293;-60
2023/11/30 03:16:28;;;;;;;17.35;14.50;;;2.00;99.90;;;;;;5050933;28;20298;-59
2023/11/30 03:18:56;;;;;;;15.15;13.52;;;2.00;99.90;;;;;;5053398;28;20667;-59
2023/11/30 03:21:23;;;;;;;17.02;13.90;;;2.00;99.90;;;;;;5054489;28;20218;-59
2023/11/30 03:23:51;;;;;;;15.80;13.43;;;2.00;99.90;;;;;;5054524;28;20214;-58
2023/11/30 03:26:18;;;;;;;17.50;13.10;;;2.00;99.90;;;;;;5054337;28;20230;-59
2023/11/30 03:28:45;;;;;;;18.42;13.25;;;2.00;99.90;;;;;;5054402;28;20226;-60
2023/11/30 03:31:14;;;;;;;19.20;14.25;;;2.00;99.90;;;;;;5054657;28;20208;-55
2023/11/30 03:33:41;;;;;;;19.95;14.40;;;2.00;99.90;;;;;;5054549;28;20302;-59
2023/11/30 03:36:09;;;;;;;21.42;16.20;;;2.00;99.90;;;;;;5054262;28;20607;-59
2023/11/30 03:38:36;;;;;;;19.65;14.35;;;2.00;99.90;;;;;;5053978;28;20228;-59
2023/11/30 03:41:03;;;;;;;22.50;16.45;;;2.00;99.90;;;;;;5054330;28;20237;-60
2023/11/30 03:43:30;;;;;;;19.88;15.70;;;2.00;99.90;;;;;;5054467;28;20206;-59
2023/11/30 03:45:56;;;;;;;18.30;13.88;;;2.00;99.90;;;;;;5054071;28;20210;-59
2023/11/30 03:48:25;;;;;;;18.05;16.02;;;2.00;99.90;;;;;;5053844;28;20256;-57
2023/11/30 03:50:51;;;;;;;19.65;13.32;;;2.00;99.90;;;;;;5054167;28;20288;-59
2023/11/30 03:53:18;;;;;;;22.67;16.17;;;2.00;99.90;;;;;;5054433;28;20228;-58
2023/11/30 03:55:45;;;;;;;22.65;16.60;;;2.00;99.90;;;;;;5053974;28;20206;-59
2023/11/30 03:58:12;;;;;;;21.73;16.85;;;2.00;99.90;;;;;;5053881;28;20585;-59
2023/11/30 04:00:39;;;;;;;24.33;17.90;;;2.00;99.90;;;;;;5054063;28;20584;-60
2023/11/30 04:03:05;;;;;;;21.02;16.73;;;2.00;99.90;;;;;;5053857;28;20214;-60
2023/11/30 04:05:33;;;;;;;21.85;17.05;;;2.00;99.90;;;;;;5052412;28;20202;-60
2023/11/30 04:08:00;;;;;;;23.45;17.77;;;2.00;99.90;;;;;;5053533;28;20268;-59
2023/11/30 04:10:27;;;;;;;19.83;15.85;;;2.00;99.90;;;;;;5053749;28;20202;-59
2023/11/30 04:12:54;;;;;;;28.13;17.95;;;2.00;99.90;;;;;;5053692;28;20213;-57
2023/11/30 04:15:21;;;;;;;23.63;17.65;;;2.00;99.90;;;;;;5053616;28;20202;-60
2023/11/30 04:17:48;;;;;;;24.65;16.40;;;2.00;99.90;;;;;;5053606;28;20207;-59
2023/11/30 04:20:15;;;;;;;18.33;16.05;;;2.00;99.90;;;;;;5053690;28;20230;-58
2023/11/30 04:22:43;;;;;;;19.15;16.33;;;2.00;99.90;;;;;;5053752;28;20591;-57
2023/11/30 04:25:10;;;;;;;19.38;15.95;;;2.00;99.90;;;;;;5053691;28;20790;-58
2023/11/30 04:27:37;;;;;;;21.88;17.40;;;2.00;99.90;;;;;;5053152;28;20230;-58
2023/11/30 04:30:05;;;;;;;22.77;16.70;;;2.00;99.90;;;;;;5052702;28;20229;-60
2023/11/30 04:32:32;;;;;;;30.27;17.30;;;1.90;99.90;;;;;;5053568;28;20289;-59
2023/11/30 04:34:59;;;;;;;20.17;16.20;;;1.90;99.90;;;;;;5053604;28;20230;-60
2023/11/30 04:37:26;;;;;;;24.55;18.15;;;1.90;99.90;;;;;;5053161;28;20293;-60
2023/11/30 04:39:55;;;;;;;24.42;17.85;;;1.90;99.90;;;;;;5053424;28;20226;-59
2023/11/30 04:42:21;;;;;;;21.02;15.02;;;1.90;99.90;;;;;;5053313;28;20251;-60
2023/11/30 04:44:49;;;;;;;22.75;17.33;;;1.90;99.90;;;;;;5053370;28;20210;-59
2023/11/30 04:47:16;;;;;;;21.35;18.08;;;1.90;99.90;;;;;;5053101;28;20316;-60
2023/11/30 04:49:43;;;;;;;22.48;15.50;;;1.90;99.90;;;;;;5053138;28;20257;-60
2023/11/30 04:52:10;;;;;;;19.55;16.08;;;1.80;99.90;;;;;;5053256;28;20202;-60
2023/11/30 04:54:37;;;;;;;25.00;18.90;;;1.80;99.90;;;;;;5053066;28;20225;-56
2023/11/30 04:57:06;;;;;;;27.77;17.60;;;1.80;99.90;;;;;;5052938;28;20572;-60
2023/11/30 04:59:32;;;;;;;27.63;17.67;;;1.80;99.90;;;;;;5053326;28;20229;-58
2023/11/30 05:01:59;;;;;;;29.33;18.30;;;1.80;99.90;;;;;;5053085;28;20206;-57
2023/11/30 05:04:26;;;;;;;20.88;17.45;;;1.70;99.90;;;;;;5052987;28;20207;-59
2023/11/30 05:06:53;;;;;;;24.98;19.42;;;1.70;99.90;;;;;;5052419;28;20226;-59
2023/11/30 05:09:20;;;;;;;22.92;16.35;;;1.70;99.90;;;;;;5052688;28;20232;-60
2023/11/30 05:11:46;;;;;;;20.85;18.30;;;1.70;99.90;;;;;;5052623;28;20793;-58
2023/11/30 05:14:15;;;;;;;24.38;17.67;;;1.70;99.90;;;;;;5052790;28;20217;-60
2023/11/30 05:16:41;;;;;;;25.85;18.85;;;1.60;99.90;;;;;;5052113;28;20234;-59
2023/11/30 05:19:08;;;;;;;24.33;18.20;;;1.60;99.90;;;;;;5052562;28;20292;-60
2023/11/30 05:21:35;;;;;;;25.80;19.75;;;1.60;99.90;;;;;;5052566;28;20207;-60
2023/11/30 05:24:02;;;;;;;24.23;18.40;;;1.60;99.90;;;;;;5052342;28;20210;-59
2023/11/30 05:26:28;;;;;;;23.35;18.25;;;1.50;99.90;;;;;;5052019;28;20209;-60
2023/11/30 05:28:56;;;;;;;23.55;20.25;;;1.50;99.90;;;;;;5052459;28;20232;-60
2023/11/30 05:31:24;;;;;;;25.15;18.63;;;1.50;99.90;;;;;;5052181;28;20211;-58
2023/11/30 05:33:51;;;;;;;26.98;19.95;;;1.50;99.90;;;;;;5052184;28;20207;-59
2023/11/30 05:36:18;;;;;;;26.65;23.08;;;1.50;99.90;;;;;;5051971;28;20680;-59
2023/11/30 05:38:45;;;;;;;29.60;21.48;;;1.50;99.90;;;;;;5051972;28;20234;-57
2023/11/30 05:41:12;;;;;;;31.90;21.05;;;1.50;99.90;;;;;;5052156;28;20232;-59
2023/11/30 05:43:39;;;;;;;25.65;20.00;;;1.50;99.90;;;;;;5052130;28;20218;-59
2023/11/30 05:46:06;;;;;;;25.98;18.13;;;1.50;99.90;;;;;;5052014;28;20206;-57
2023/11/30 05:48:34;;;;;;;26.10;19.88;;;1.50;99.90;;;;;;5051450;28;20234;-58
2023/11/30 05:51:01;;;;;;;25.13;19.33;;;1.50;99.90;;;;;;5051589;28;20347;-58
2023/11/30 05:53:29;;;;;;;25.48;19.67;;;1.50;99.90;;;;;;5051676;28;20207;-58
2023/11/30 05:55:56;;;;;;;26.13;20.95;;;1.50;99.90;;;;;;5051804;28;20203;-60
2023/11/30 05:58:23;;;;;;;24.52;19.70;;;1.50;99.90;;;;;;5051410;28;20233;-59
2023/11/30 06:00:49;;;;;;;26.38;20.33;;;1.50;99.90;;;;;;5051597;28;20573;-58
2023/11/30 06:03:16;;;;;;;28.38;20.98;;;1.60;99.90;;;;;;5051571;28;20209;-60
2023/11/30 06:05:44;;;;;;;25.27;19.20;;;1.60;99.90;;;;;;5051228;28;20203;-58
2023/11/30 06:08:11;;;;;;;28.90;19.95;;;1.60;99.90;;;;;;5051279;28;20228;-60
2023/11/30 06:10:38;;;;;;;25.45;18.50;;;1.60;99.90;;;;;;5051507;28;20268;-60
2023/11/30 06:13:07;;;;;;;26.80;19.75;;;1.60;99.90;;;;;;5051491;28;20293;-59
2023/11/30 06:15:33;;;;;;;27.45;19.05;;;1.60;99.90;;;;;;5051397;28;20208;-60
2023/11/30 06:18:00;;;;;;;31.00;20.00;;;1.60;99.90;;;;;;5050647;28;20198;-61
2023/11/30 06:20:27;;;;;;;26.73;18.73;;;1.60;99.90;;;;;;5051180;28;20213;-60
2023/11/30 06:22:55;;;;;;;28.75;19.83;;;1.60;99.90;;;;;;5051126;28;20209;-59
2023/11/30 06:25:22;;;;;;;28.85;19.80;;;1.60;99.90;;;;;;5051307;28;20202;-60
2023/11/30 06:27:49;;;;;;;23.55;18.05;;;1.70;99.90;;;;;;5050870;28;20223;-60
2023/11/30 06:30:16;;;;;;;25.70;19.23;;;1.70;99.90;;;;;;5050872;28;20333;-60
2023/11/30 06:32:43;;;;;;;24.25;18.73;;;1.70;99.90;;;;;;5050917;28;20752;-60
2023/11/30 06:35:10;;;;;;;24.40;18.80;;;1.70;99.90;;;;;;5051082;28;20202;-59
2023/11/30 06:37:36;;;;;;;31.33;19.73;;;1.70;99.90;;;;;;5050861;28;20208;-61
2023/11/30 06:40:06;;;;;;;22.70;19.08;;;1.70;99.90;;;;;;5050845;28;20830;-61
2023/11/30 06:42:33;;;;;;;24.40;18.20;;;1.70;99.90;;;;;;5050851;28;20221;-61
2023/11/30 06:45:00;;;;;;;25.77;20.05;;;1.70;99.90;;;;;;5050781;28;20217;-59
2023/11/30 06:47:26;;;;;;;23.95;17.75;;;1.70;99.90;;;;;;5050777;28;20222;-59
2023/11/30 06:49:53;;;;;;;22.13;17.75;;;1.70;99.90;;;;;;5050714;28;20615;-60
2023/11/30 06:52:20;;;;;;;23.40;17.98;;;1.70;99.90;;;;;;5050248;28;20206;-61
2023/11/30 06:54:47;;;;;;;25.25;20.48;;;1.60;99.90;;;;;;5050744;28;20206;-60
2023/11/30 06:57:15;;;;;;;25.88;19.55;;;1.60;99.90;;;;;;5050366;28;20290;-61
2023/11/30 06:59:43;;;;;;;24.83;18.73;;;1.60;99.90;;;;;;5050379;28;20742;-61
2023/11/30 07:02:10;;;;;;;27.98;19.80;;;1.60;99.90;;;;;;5050784;28;20207;-61
2023/11/30 07:04:37;;;;;;;30.20;20.60;;;1.50;99.90;;;;;;5050607;28;20213;-61
2023/11/30 07:07:04;;;;;;;26.10;20.88;;;1.50;99.90;;;;;;5050096;28;20681;-61
2023/11/30 07:09:31;;;;;;;31.55;20.00;;;1.50;99.90;;;;;;5050371;28;20226;-60
2023/11/30 07:11:58;;;;;;;27.98;20.92;;;1.40;99.90;;;;;;5050610;28;20587;-61
2023/11/30 07:14:26;;;;;;;26.05;19.13;;;1.40;99.90;;;;;;5050410;28;20202;-61
2023/11/30 07:16:52;;;;;;;22.52;18.52;;;1.40;99.90;;;;;;5050393;28;20206;-59
2023/11/30 07:19:19;;;;;;;24.77;17.77;;;1.30;99.90;;;;;;5049228;28;20222;-60
2023/11/30 07:21:49;;;;;;;23.23;18.38;;;1.30;99.90;;;;;;5049690;28;20210;-60
2023/11/30 07:24:16;;;;;;;23.23;17.40;;;1.30;99.90;;;;;;5050048;28;20206;-61
2023/11/30 07:26:45;;;;;;;21.65;17.10;;;1.30;99.90;;;;;;5049968;28;20206;-61
2023/11/30 07:29:14;;;;;;;23.17;18.45;;;1.30;99.90;;;;;;5050080;28;20238;-59
2023/11/30 07:31:44;;;;;;;24.73;18.00;;;1.30;99.90;;;;;;5050246;28;20203;-61
2023/11/30 07:34:11;;;;;;;24.90;18.95;;;1.30;99.90;;;;;;5050201;28;20202;-61
2023/11/30 07:36:37;;;;;;;22.70;19.80;;;1.30;99.90;;;;;;5050321;28;20206;-61
2023/11/30 07:39:04;;;;;;;23.25;18.92;;;1.30;99.90;;;;;;5050143;28;20231;-61
2023/11/30 07:41:31;;;;;;;21.98;16.27;;;1.30;99.90;;;;;;5050084;28;20236;-61
2023/11/30 07:43:58;;;;;;;22.42;17.13;;;1.30;99.90;;;;;;5050361;28;20209;-61
2023/11/30 07:46:25;;;;;;;22.92;18.75;;;1.30;99.90;;;;;;5049999;28;20212;-61
2023/11/30 07:48:54;;;;;;;27.00;18.00;;;1.30;99.90;;;;;;5049873;28;20307;-61
2023/11/30 07:51:23;;;;;;;25.23;18.27;;;1.30;99.90;;;;;;5050256;28;20207;-59
2023/11/30 07:53:50;;;;;;;26.50;18.23;;;1.40;99.90;;;;;;5049982;28;20202;-61
2023/11/30 07:56:20;;;;;;;25.23;17.55;;;1.40;99.90;;;;;;5050151;28;20302;-61
2023/11/30 07:58:48;;;;;;;25.77;22.55;;;1.40;99.90;;;;;;5048566;28;20218;-60
2023/11/30 08:01:14;;;;;;;26.38;19.38;;;1.50;99.90;;;;;;5049361;28;20198;-61
2023/11/30 08:03:42;;;;;;;27.10;18.65;;;1.50;99.90;;;;;;5049514;28;20757;-61
2023/11/30 08:06:11;;;;;;;26.48;19.17;;;1.50;99.90;;;;;;5052735;28;20210;-61
2023/11/30 08:08:38;;;;;;;27.20;19.80;;;1.60;99.90;;;;;;5052288;28;20229;-61
2023/11/30 08:11:05;;;;;;;24.67;19.48;;;1.60;99.90;;;;;;5053063;28;20206;-61
2023/11/30 08:13:33;;;;;;;24.75;20.50;;;1.60;99.90;;;;;;5053171;28;20564;-60
2023/11/30 08:16:00;;;;;;;23.95;17.67;;;1.60;99.90;;;;;;5052984;28;20202;-61
2023/11/30 08:18:27;;;;;;;25.80;18.38;;;1.60;99.90;;;;;;5052937;28;20272;-61
2023/11/30 08:20:58;;;;;;;25.50;18.48;;;1.60;99.90;;;;;;5052589;28;20210;-61
2023/11/30 08:23:26;;;;;;;25.05;19.75;;;1.60;99.90;;;;;;5053181;28;20375;-61
2023/11/30 08:25:53;;;;;;;20.70;18.40;;;1.70;99.90;;;;;;5052289;28;20598;-61
2023/11/30 08:28:20;;;;;;;21.80;17.77;;;1.70;99.90;;;;;;5050977;28;20788;-61
2023/11/30 08:30:47;;;;;;;21.73;18.02;;;1.80;99.90;;;;;;5052343;28;20206;-61
2023/11/30 08:33:13;;;;;;;26.83;19.80;;;1.80;99.90;;;;;;5052309;28;20210;-61
2023/11/30 08:35:40;;;;;;;22.65;19.23;;;1.80;99.90;;;;;;5051950;28;20209;-61
2023/11/30 08:38:09;;;;;;;24.38;19.10;;;1.80;99.90;;;;;;5052283;28;20205;-60
2023/11/30 08:40:37;;;;;;;28.83;21.40;;;1.90;99.90;;;;;;5052257;28;20205;-58
2023/11/30 08:43:04;;;;;;;21.77;19.42;;;1.90;99.90;;;;;;5051614;28;20198;-60
2023/11/30 08:45:32;;;;;;;22.08;18.92;;;1.90;99.90;;;;;;5050989;28;20672;-57
2023/11/30 08:47:59;;;;;;;20.80;17.90;;;2.00;99.90;;;;;;5051493;28;20229;-61
2023/11/30 08:50:25;;;;;;;33.80;21.20;;;2.00;99.90;;;;;;5046406;28;20210;-60
2023/11/30 08:52:52;;;;;;;27.65;20.17;;;2.00;99.90;;;;;;5052409;28;20202;-61
2023/11/30 08:55:19;;;;;;;30.55;21.80;;;2.10;99.90;;;;;;5051487;28;20220;-60
2023/11/30 08:57:48;;;;;;;31.48;22.10;;;2.10;99.90;;;;;;5051698;28;20206;-61
2023/11/30 09:00:16;;;;;;;25.25;20.38;;;2.10;99.90;;;;;;5051243;28;20611;-60
2023/11/30 09:02:42;;;;;;;29.45;20.25;;;2.10;99.90;;;;;;5051298;28;20902;-61
2023/11/30 09:05:11;;;;;;;26.20;18.92;;;2.10;99.90;;;;;;5051326;28;20311;-60
2023/11/30 09:07:38;;;;;;;26.33;21.90;;;2.20;99.90;;;;;;5051748;28;20724;-61
2023/11/30 09:10:06;;;;;;;25.85;19.63;;;2.20;99.90;;;;;;5049460;28;20309;-60
2023/11/30 09:12:32;;;;;;;24.70;19.75;;;2.30;99.90;;;;;;5050854;28;20205;-61
2023/11/30 09:15:01;;;;;;;26.58;20.35;;;2.30;99.90;;;;;;5050249;28;20228;-61
2023/11/30 09:17:29;;;;;;;22.13;19.33;;;2.30;99.90;;;;;;5050219;28;20681;-61
2023/11/30 09:19:56;;;;;;;29.10;19.85;;;2.40;99.90;;;;;;5050718;28;20347;-61
2023/11/30 09:22:22;;;;;;;23.35;18.80;;;2.50;99.90;;;;;;5050692;28;20648;-61
2023/11/30 09:24:50;;;;;;;25.38;20.25;;;2.50;99.90;;;;;;5050894;28;20206;-61
2023/11/30 09:27:17;;;;;;;25.83;21.42;;;2.70;99.90;;;;;;5050197;28;20711;-61
2023/11/30 09:29:43;;;;;;;25.27;21.17;;;2.70;99.90;;;;;;5050331;28;20230;-61
2023/11/30 09:32:12;;;;;;;28.95;19.92;;;2.80;99.90;;;;;;5046980;28;20215;-60
2023/11/30 09:34:38;;;;;;;27.05;20.48;;;2.80;99.90;;;;;;5051084;28;20365;-61
2023/11/30 09:37:05;;;;;;;23.33;20.13;;;2.80;99.90;;;;;;5050299;28;20210;-61
2023/11/30 09:39:32;;;;;;;26.10;18.92;;;2.90;99.90;;;;;;5051484;28;20605;-61
2023/11/30 09:41:59;;;;;;;24.05;19.20;;;2.90;99.90;;;;;;5039544;28;20207;-62
2023/11/30 09:44:27;;;;;;;23.48;21.13;;;2.90;99.90;;;;;;5050295;28;20210;-61
2023/11/30 09:46:53;;;;;;;26.27;19.70;;;2.90;99.90;;;;;;5049769;28;20588;-61
2023/11/30 09:49:22;;;;;;;21.55;18.75;;;3.00;99.90;;;;;;5050646;28;20338;-61
2023/11/30 09:51:51;;;;;;;28.55;20.48;;;3.00;99.90;;;;;;5050273;28;20218;-61
2023/11/30 09:54:19;;;;;;;22.83;19.77;;;3.10;99.90;;;;;;5051016;28;20787;-61
2023/11/30 09:56:46;;;;;;;22.17;18.95;;;3.10;99.90;;;;;;5049891;28;20680;-61
2023/11/30 09:59:13;;;;;;;22.63;17.75;;;3.10;99.90;;;;;;5051023;28;20231;-61
2023/11/30 10:01:40;;;;;;;25.48;18.80;;;3.10;99.90;;;;;;5051072;28;20233;-61
2023/11/30 10:04:14;;;;;;;26.77;19.45;;;3.10;99.90;;;;;;5051088;28;20697;-61
2023/11/30 10:06:43;;;;;;;25.50;19.33;;;3.20;99.90;;;;;;5050664;28;20211;-61
2023/11/30 10:09:12;;;;;;;24.13;18.92;;;3.20;99.90;;;;;;5050419;28;20611;-61
2023/11/30 10:11:39;;;;;;;20.88;17.40;;;3.20;99.90;;;;;;5050323;28;20207;-60
2023/11/30 10:14:06;;;;;;;23.40;17.83;;;3.20;99.90;;;;;;5050796;28;20210;-61
2023/11/30 10:16:34;;;;;;;23.33;17.95;;;3.30;99.90;;;;;;5050264;28;20209;-61
2023/11/30 10:19:01;;;;;;;27.10;19.80;;;3.40;99.90;;;;;;5049984;28;20290;-61
2023/11/30 10:21:28;;;;;;;19.02;16.75;;;3.40;99.90;;;;;;5050570;28;20244;-59
2023/11/30 10:23:57;;;;;;;20.80;17.25;;;3.50;99.90;;;;;;5050808;28;20298;-61
2023/11/30 10:26:25;;;;;;;18.23;16.23;;;3.50;99.90;;;;;;5048117;28;20804;-61
2023/11/30 10:28:54;;;;;;;21.73;17.58;;;3.60;99.90;;;;;;5048070;28;20240;-60
2023/11/30 10:31:22;;;;;;;22.13;16.20;;;3.60;99.90;;;;;;5049591;28;20206;-61
2023/11/30 10:33:54;;;;;;;22.95;19.45;;;3.70;99.90;;;;;;5044136;28;20695;-61
2023/11/30 10:36:25;;;;;;;17.88;16.08;;;3.70;99.90;;;;;;5048494;28;20203;-61
2023/11/30 10:38:56;;;;;;;16.40;14.70;;;3.80;99.90;;;;;;5049921;28;20327;-61
2023/11/30 10:41:31;;;;;;;16.83;14.30;;;3.80;99.90;;;;;;5049424;28;20636;-60
2023/11/30 10:43:59;;;;;;;18.67;16.63;;;3.80;99.90;;;;;;5049746;28;20205;-60
2023/11/30 10:46:27;;;;;;;18.70;14.45;;;3.80;99.90;;;;;;5048895;28;20221;-61
2023/11/30 10:48:56;;;;;;;43.70;18.30;;;3.80;99.90;;;;;;5048359;28;20233;-60
2023/11/30 10:51:23;;;;;;;16.50;14.60;;;3.80;99.90;;;;;;5048831;28;20687;-60
2023/11/30 10:53:57;;;;;;;19.50;15.52;;;3.80;99.90;;;;;;5048662;28;20204;-60
2023/11/30 10:56:26;;;;;;;18.48;16.63;;;3.80;99.90;;;;;;5048728;28;20589;-59
2023/11/30 10:58:53;;;;;;;17.55;14.45;;;3.80;99.90;;;;;;5048475;28;20218;-59
2023/11/30 11:01:20;;;;;;;19.83;16.88;;;3.80;99.90;;;;;;5048855;28;20607;-58
2023/11/30 11:03:47;;;;;;;18.88;16.80;;;3.80;99.90;;;;;;5049644;28;20198;-58
2023/11/30 11:06:16;;;;;;;25.33;16.13;;;3.80;99.90;;;;;;5049383;28;20198;-59
2023/11/30 11:08:59;;;;;;;19.88;15.55;;;3.70;99.90;;;;;;5049030;28;20643;-58
2023/11/30 11:11:30;;;;;;;17.42;15.63;;;3.70;99.90;;;;;;5049023;28;20700;-57
2023/11/30 11:13:57;;;;;;;20.63;15.48;;;3.60;99.90;;;;;;5048511;28;20199;-60
2023/11/30 11:16:34;;;;;;;18.08;16.05;;;3.60;99.90;;;;;;5048908;28;20234;-57
2023/11/30 11:19:04;;;;;;;20.75;15.55;;;3.60;99.90;;;;;;5048675;28;20218;-59
2023/11/30 11:21:36;;;;;;;22.05;17.90;;;3.60;99.90;;;;;;5048201;28;20690;-57
2023/11/30 11:24:04;;;;;;;21.15;16.48;;;3.60;99.90;;;;;;5033664;28;20199;-56
2023/11/30 11:26:43;;;;;;;20.63;14.98;;;3.60;99.90;;;;;;5049622;28;20202;-58
2023/11/30 11:29:12;;;;;;;17.00;14.38;;;3.60;99.90;;;;;;5046167;28;20307;-60
2023/11/30 11:31:39;;;;;;;18.75;15.20;;;3.60;99.90;;;;;;5043566;28;20217;-58
2023/11/30 11:34:07;;;;;;;24.70;16.15;;;3.60;99.90;;;;;;5048602;28;20202;-56
2023/11/30 11:36:37;;;;;;;21.02;17.02;;;3.60;99.90;;;;;;5049785;28;20289;-60
2023/11/30 11:39:04;;;;;;;20.48;15.48;;;3.60;99.90;;;;;;5051517;28;20255;-57
2023/11/30 11:41:30;;;;;;;20.70;15.15;;;3.70;99.90;;;;;;5053477;28;20307;-58
2023/11/30 11:43:59;;;;;;;21.00;17.58;;;3.70;99.90;;;;;;5053784;28;20203;-58
2023/11/30 11:46:25;;;;;;;20.02;17.02;;;3.70;99.90;;;;;;5051896;28;20209;-57
2023/11/30 11:48:54;;;;;;;19.77;15.20;;;3.80;99.90;;;;;;5047626;28;21671;-57
2023/11/30 11:51:21;;;;;;;21.75;13.75;;;3.80;99.90;;;;;;5052637;28;20281;-59
2023/11/30 11:53:48;;;;;;;18.75;16.13;;;3.90;99.90;;;;;;5052361;28;20230;-60
2023/11/30 11:56:15;;;;;;;18.70;15.07;;;3.90;99.90;;;;;;5050010;28;20825;-56
2023/11/30 11:58:44;;;;;;;15.77;14.18;;;3.90;99.90;;;;;;5047783;28;20684;-58
2023/11/30 12:01:12;;;;;;;19.20;15.00;;;3.90;99.90;;;;;;5047944;28;20234;-53
2023/11/30 12:03:46;;;;;;;15.55;13.65;;;3.90;99.90;;;;;;5052455;28;20213;-55
2023/11/30 12:06:13;;;;;;;19.55;14.68;;;3.90;99.90;;;;;;5052053;28;20613;-58
2023/11/30 12:08:40;;;;;;;16.95;15.02;;;4.00;99.90;;;;;;5052370;28;20228;-55
2023/11/30 12:11:07;;;;;;;15.85;13.70;;;4.00;99.90;;;;;;5052216;28;20285;-54
2023/11/30 12:13:37;;;;;;;19.10;13.88;;;4.00;99.90;;;;;;5052673;28;20208;-57
2023/11/30 12:16:05;;;;;;;15.68;13.98;;;4.10;99.90;;;;;;5052409;28;20205;-58
2023/11/30 12:18:33;;;;;;;18.50;14.35;;;4.20;99.90;;;;;;5051138;28;20218;-58
2023/11/30 12:21:00;;;;;;;18.10;14.93;;;4.20;99.90;;;;;;5051631;28;20242;-58
2023/11/30 12:23:26;;;;;;;19.60;15.75;;;4.30;99.90;;;;;;5052027;28;20208;-58
2023/11/30 12:25:53;;;;;;;16.40;12.70;;;4.40;99.90;;;;;;5052600;28;20206;-57
2023/11/30 12:28:20;;;;;;;15.82;14.32;;;4.50;99.90;;;;;;5052046;28;20692;-59
2023/11/30 12:30:47;;;;;;;16.98;14.15;;;4.50;99.90;;;;;;5052456;28;20305;-70
2023/11/30 12:33:14;;;;;;;15.10;13.10;;;4.50;99.90;;;;;;5052349;28;20202;-58
2023/11/30 12:35:42;;;;;;;16.27;13.80;;;4.50;99.90;;;;;;5051124;28;20220;-60